createdAt,value
2022-09-12T00:01:04.564Z,10.60
2022-09-12T00:03:53.820Z,12.57
2022-09-12T00:06:43.224Z,11.30
2022-09-12T00:09:33.007Z,10.70
2022-09-12T00:12:21.466Z,11.10
2022-09-12T00:15:11.268Z,12.60
2022-09-12T00:17:59.699Z,11.13
2022-09-12T00:20:48.532Z,10.87
2022-09-12T00:23:37.000Z,11.70
2022-09-12T00:26:26.948Z,12.17
2022-09-12T00:29:17.186Z,11.57
2022-09-12T00:32:05.790Z,11.57
2022-09-12T00:34:54.203Z,10.80
2022-09-12T00:37:42.670Z,11.00
2022-09-12T00:40:31.112Z,10.90
2022-09-12T00:46:45.492Z,12.07
2022-09-12T00:49:35.615Z,11.40
2022-09-12T00:52:28.034Z,12.50
2022-09-12T00:55:18.393Z,11.97
2022-09-12T00:58:10.592Z,11.80
2022-09-12T01:00:59.995Z,11.20
2022-09-12T01:03:49.883Z,11.27
2022-09-12T01:06:41.218Z,11.40
2022-09-12T01:09:29.660Z,10.37
2022-09-12T01:12:18.698Z,12.60
2022-09-12T01:15:07.947Z,12.00
2022-09-12T01:18:08.702Z,11.60
2022-09-12T01:21:09.835Z,15.07
2022-09-12T01:24:24.779Z,10.20
2022-09-12T01:27:39.210Z,11.80
2022-09-12T01:30:43.691Z,10.53
2022-09-12T01:33:52.366Z,10.63
2022-09-12T01:36:48.504Z,11.63
2022-09-12T01:39:42.319Z,11.27
2022-09-12T01:42:35.001Z,10.50
2022-09-12T01:45:29.121Z,11.13
2022-09-12T01:48:21.240Z,11.83
2022-09-12T01:51:14.811Z,10.93
2022-09-12T01:54:07.819Z,11.70
2022-09-12T01:56:58.398Z,12.07
2022-09-12T01:59:49.563Z,11.63
2022-09-12T02:02:40.492Z,11.70
2022-09-12T02:05:33.655Z,11.87
2022-09-12T02:08:27.095Z,12.53
2022-09-12T02:11:15.548Z,12.53
2022-09-12T02:14:07.294Z,12.13
2022-09-12T02:16:59.767Z,13.93
2022-09-12T02:19:51.534Z,11.93
2022-09-12T02:22:42.701Z,13.03
2022-09-12T02:25:31.651Z,12.50
2022-09-12T02:28:24.536Z,13.63
2022-09-12T02:31:18.268Z,11.80
2022-09-12T02:34:11.707Z,11.20
2022-09-12T02:37:07.518Z,12.50
2022-09-12T02:39:57.797Z,12.03
2022-09-12T02:42:46.609Z,12.17
2022-09-12T02:45:35.922Z,12.00
2022-09-12T02:48:27.553Z,11.83
2022-09-12T02:51:18.290Z,13.00
2022-09-12T02:54:10.350Z,12.27
2022-09-12T02:57:00.308Z,12.37
2022-09-12T02:59:49.636Z,12.17
2022-09-12T03:02:53.907Z,13.57
2022-09-12T03:05:48.235Z,13.27
2022-09-12T03:08:51.272Z,12.60
2022-09-12T03:12:03.931Z,13.07
2022-09-12T03:15:11.470Z,12.03
2022-09-12T03:18:07.466Z,12.40
2022-09-12T03:21:03.327Z,12.23
2022-09-12T03:24:03.654Z,15.70
2022-09-12T03:26:56.215Z,11.77
2022-09-12T03:29:47.800Z,13.37
2022-09-12T03:32:44.234Z,12.30
2022-09-12T03:35:32.681Z,13.17
2022-09-12T03:38:21.287Z,18.87
2022-09-12T03:41:09.729Z,13.17
2022-09-12T03:43:58.157Z,14.13
2022-09-12T03:46:48.035Z,18.10
2022-09-12T03:49:36.435Z,13.33
2022-09-12T03:52:25.025Z,13.23
2022-09-12T03:55:13.443Z,13.17
2022-09-12T03:58:01.912Z,12.67
2022-09-12T04:00:50.572Z,13.43
2022-09-12T04:03:41.082Z,13.47
2022-09-12T04:06:29.711Z,13.27
2022-09-12T04:09:18.188Z,14.07
2022-09-12T04:12:07.922Z,15.03
2022-09-12T04:14:56.356Z,13.03
2022-09-12T04:17:44.876Z,14.10
2022-09-12T04:20:34.655Z,11.83
2022-09-12T04:23:23.188Z,13.43
2022-09-12T04:26:13.611Z,14.20
2022-09-12T04:29:02.060Z,15.90
2022-09-12T04:31:50.540Z,13.97
2022-09-12T04:34:39.114Z,14.17
2022-09-12T04:37:28.922Z,13.60
2022-09-12T04:40:17.390Z,12.47
2022-09-12T04:43:08.458Z,13.60
2022-09-12T04:46:06.588Z,14.23
2022-09-12T04:48:57.114Z,12.70
2022-09-12T04:51:46.018Z,14.43
2022-09-12T04:54:35.848Z,16.57
2022-09-12T04:57:24.286Z,13.40
2022-09-12T05:00:14.588Z,14.50
2022-09-12T05:03:03.048Z,12.30
2022-09-12T05:05:55.861Z,13.43
2022-09-12T05:08:44.945Z,14.00
2022-09-12T05:12:02.484Z,13.17
2022-09-12T05:14:46.543Z,12.67
2022-09-12T05:17:35.390Z,13.77
2022-09-12T05:20:23.854Z,16.23
2022-09-12T05:23:12.287Z,12.43
2022-09-12T05:26:01.754Z,14.83
2022-09-12T05:28:52.201Z,13.10
2022-09-12T05:31:40.816Z,13.57
2022-09-12T05:34:29.287Z,13.83
2022-09-12T05:37:17.760Z,12.83
2022-09-12T05:40:08.556Z,12.80
2022-09-12T05:42:57.538Z,13.30
2022-09-12T05:45:47.436Z,12.67
2022-09-12T05:48:36.832Z,13.83
2022-09-12T05:51:26.819Z,12.47
2022-09-12T05:54:17.998Z,12.83
2022-09-12T05:57:06.491Z,11.53
2022-09-12T05:59:54.924Z,12.83
2022-09-12T06:02:44.682Z,11.60
2022-09-12T06:05:33.996Z,12.70
2022-09-12T06:08:22.456Z,12.03
2022-09-12T06:11:12.930Z,11.37
2022-09-12T06:14:01.889Z,13.87
2022-09-12T06:16:50.457Z,11.00
2022-09-12T06:19:40.290Z,11.50
2022-09-12T06:22:28.708Z,10.40
2022-09-12T06:25:17.233Z,10.93
2022-09-12T06:28:05.659Z,9.80
2022-09-12T06:30:54.422Z,10.80
2022-09-12T06:33:44.584Z,9.37
2022-09-12T06:36:36.219Z,10.50
2022-09-12T06:39:24.743Z,12.03
2022-09-12T06:42:14.856Z,9.93
2022-09-12T06:45:03.339Z,8.83
2022-09-12T06:47:51.772Z,9.43
2022-09-12T06:50:43.863Z,11.00
2022-09-12T06:53:34.699Z,10.17
2022-09-12T06:56:24.557Z,10.03
2022-09-12T06:59:13.038Z,9.47
2022-09-12T07:02:01.542Z,8.53
2022-09-12T07:04:51.725Z,8.27
2022-09-12T07:07:40.224Z,9.47
2022-09-12T07:10:30.905Z,9.53
2022-09-12T07:13:19.855Z,10.03
2022-09-12T07:16:08.665Z,11.60
2022-09-12T07:18:58.772Z,8.53
2022-09-12T07:21:47.229Z,8.53
2022-09-12T07:24:35.842Z,9.00
2022-09-12T07:27:25.677Z,13.37
2022-09-12T07:30:14.123Z,7.93
2022-09-12T07:33:02.617Z,7.83
2022-09-12T07:35:53.249Z,6.70
2022-09-12T07:38:42.379Z,8.90
2022-09-12T07:41:33.673Z,6.93
2022-09-12T07:44:23.523Z,6.47
2022-09-12T07:47:11.990Z,6.73
2022-09-12T07:50:00.608Z,8.80
2022-09-12T07:52:49.073Z,5.77
2022-09-12T07:55:37.528Z,6.83
2022-09-12T07:58:26.674Z,6.80
2022-09-12T08:01:17.834Z,6.17
2022-09-12T08:04:06.379Z,5.90
2022-09-12T08:06:54.839Z,5.70
2022-09-12T08:09:43.285Z,7.80
2022-09-12T08:12:32.220Z,5.70
2022-09-12T08:15:20.986Z,5.90
2022-09-12T08:18:11.313Z,4.93
2022-09-12T08:20:59.993Z,5.00
2022-09-12T08:23:49.060Z,5.70
2022-09-12T08:26:37.883Z,5.73
2022-09-12T08:29:26.353Z,5.20
2022-09-12T08:32:14.819Z,4.30
2022-09-12T08:35:05.324Z,8.53
2022-09-12T08:37:53.773Z,5.07
2022-09-12T08:40:48.496Z,4.33
2022-09-12T08:43:54.503Z,4.93
2022-09-12T08:46:57.243Z,5.23
2022-09-12T08:49:51.653Z,4.50
2022-09-12T08:52:47.194Z,4.87
2022-09-12T08:55:38.118Z,4.03
2022-09-12T08:58:28.323Z,3.80
2022-09-12T09:01:23.933Z,4.90
2022-09-12T09:04:25.662Z,4.20
2022-09-12T09:07:30.024Z,4.70
2022-09-12T09:10:27.337Z,4.37
2022-09-12T09:13:39.291Z,4.87
2022-09-12T09:16:32.482Z,4.30
2022-09-12T09:19:23.016Z,5.53
2022-09-12T09:22:14.001Z,4.73
2022-09-12T09:25:07.889Z,4.20
2022-09-12T09:28:02.189Z,4.07
2022-09-12T09:30:50.738Z,4.57
2022-09-12T09:33:39.379Z,4.43
2022-09-12T09:36:36.064Z,15.47
2022-09-12T09:39:31.627Z,4.83
2022-09-12T09:42:28.964Z,4.77
2022-09-12T09:45:21.896Z,5.03
2022-09-12T09:48:17.998Z,4.90
2022-09-12T09:51:09.212Z,4.40
2022-09-12T09:54:01.107Z,4.53
2022-09-12T09:56:49.827Z,4.70
2022-09-12T09:59:38.353Z,4.30
2022-09-12T10:02:28.303Z,3.80
2022-09-12T10:05:18.361Z,5.00
2022-09-12T10:08:08.447Z,4.23
2022-09-12T10:11:02.924Z,4.20
2022-09-12T10:13:56.824Z,4.70
2022-09-12T10:16:52.324Z,4.53
2022-09-12T10:19:42.118Z,4.77
2022-09-12T10:22:30.706Z,4.07
2022-09-12T10:25:20.250Z,3.90
2022-09-12T10:28:22.309Z,3.87
2022-09-12T10:31:15.165Z,4.07
2022-09-12T10:34:05.561Z,3.90
2022-09-12T10:36:59.491Z,3.70
2022-09-12T10:39:52.662Z,5.60
2022-09-12T10:42:49.935Z,4.07
2022-09-12T10:45:38.886Z,5.03
2022-09-12T10:48:30.167Z,3.70
2022-09-12T10:51:28.637Z,4.40
2022-09-12T10:54:19.856Z,4.57
2022-09-12T10:57:24.219Z,4.63
2022-09-12T11:00:18.109Z,4.07
2022-09-12T11:03:16.100Z,4.40
2022-09-12T11:06:04.856Z,4.37
2022-09-12T11:09:03.149Z,4.10
2022-09-12T11:12:02.412Z,3.30
2022-09-12T11:15:03.496Z,3.57
2022-09-12T11:17:55.778Z,5.70
2022-09-12T11:21:09.450Z,3.27
2022-09-12T11:24:13.752Z,3.27
2022-09-12T11:27:13.446Z,3.83
2022-09-12T11:30:06.703Z,3.70
2022-09-12T11:33:05.664Z,3.07
2022-09-12T11:35:57.317Z,3.03
2022-09-12T11:38:52.538Z,3.30
2022-09-12T11:41:42.724Z,3.90
2022-09-12T11:44:40.117Z,3.10
2022-09-12T11:47:30.063Z,2.77
2022-09-12T11:50:23.329Z,3.07
2022-09-12T11:53:16.575Z,3.00
2022-09-12T11:56:10.413Z,2.80
2022-09-12T11:59:02.747Z,3.43
2022-09-12T12:01:56.418Z,3.70
2022-09-12T12:05:03.365Z,3.30
2022-09-12T12:07:54.673Z,2.23
2022-09-12T12:10:45.498Z,3.73
2022-09-12T12:13:35.883Z,3.63
2022-09-12T12:16:26.903Z,2.53
2022-09-12T12:19:38.001Z,2.43
2022-09-12T12:22:26.974Z,2.20
2022-09-12T12:25:29.957Z,2.30
2022-09-12T12:28:52.414Z,2.47
2022-09-12T12:32:14.269Z,3.10
2022-09-12T12:35:40.468Z,2.47
2022-09-12T12:38:30.459Z,2.27
2022-09-12T12:41:43.879Z,3.63
2022-09-12T12:44:51.206Z,3.30
2022-09-12T12:47:42.804Z,1.90
2022-09-12T12:50:31.970Z,2.03
2022-09-12T12:53:24.789Z,2.30
2022-09-12T12:56:29.268Z,2.30
2022-09-12T12:59:21.278Z,1.90
2022-09-12T13:02:20.947Z,2.90
2022-09-12T13:05:18.685Z,2.00
2022-09-12T13:08:10.107Z,2.13
2022-09-12T13:11:02.958Z,2.50
2022-09-12T13:13:52.939Z,2.00
2022-09-12T13:16:54.392Z,2.50
2022-09-12T13:19:43.000Z,2.00
2022-09-12T13:22:41.693Z,1.97
2022-09-12T13:25:31.966Z,1.60
2022-09-12T13:28:21.863Z,2.17
2022-09-12T13:31:16.913Z,1.67
2022-09-12T13:34:06.813Z,2.60
2022-09-12T13:37:24.487Z,2.00
2022-09-12T13:40:25.017Z,3.87
2022-09-12T13:43:15.899Z,2.17
2022-09-12T13:46:08.057Z,1.90
2022-09-12T13:48:56.775Z,2.23
2022-09-12T13:51:45.312Z,2.07
2022-09-12T13:54:37.856Z,1.70
2022-09-12T13:57:31.648Z,1.60
2022-09-12T14:00:22.211Z,1.67
2022-09-12T14:03:44.639Z,6.27
2022-09-12T14:06:38.505Z,1.43
2022-09-12T14:09:29.086Z,1.60
2022-09-12T14:12:25.403Z,1.70
2022-09-12T14:15:18.566Z,2.10
2022-09-12T14:18:08.833Z,1.90
2022-09-12T14:21:03.680Z,1.90
2022-09-12T14:23:52.274Z,2.30
2022-09-12T14:26:41.738Z,2.20
2022-09-12T14:29:30.313Z,1.90
2022-09-12T14:32:24.015Z,2.07
2022-09-12T14:35:20.278Z,2.20
2022-09-12T14:38:20.509Z,2.10
2022-09-12T14:41:10.701Z,2.10
2022-09-12T14:44:01.170Z,2.30
2022-09-12T14:46:50.067Z,2.43
2022-09-12T14:49:39.047Z,2.87
2022-09-12T14:52:30.920Z,1.90
2022-09-12T14:55:29.498Z,2.23
2022-09-12T14:58:26.171Z,1.80
2022-09-12T15:01:27.826Z,2.07
2022-09-12T15:04:49.008Z,2.10
2022-09-12T15:07:40.382Z,2.17
2022-09-12T15:10:33.007Z,2.00
2022-09-12T15:13:23.586Z,2.03
2022-09-12T15:16:13.007Z,4.17
2022-09-12T15:19:01.869Z,1.70
2022-09-12T15:21:50.600Z,2.30
2022-09-12T15:24:39.896Z,2.43
2022-09-12T15:27:30.066Z,2.27
2022-09-12T15:30:19.002Z,2.77
2022-09-12T15:33:07.680Z,2.80
2022-09-12T15:35:56.254Z,2.13
2022-09-12T15:38:45.483Z,2.00
2022-09-12T15:41:36.798Z,3.10
2022-09-12T15:44:26.698Z,4.60
2022-09-12T15:47:18.118Z,2.40
2022-09-12T15:50:09.305Z,2.37
2022-09-12T15:52:59.190Z,2.53
2022-09-12T15:55:48.600Z,2.10
2022-09-12T15:58:49.999Z,2.53
2022-09-12T16:01:49.576Z,1.80
2022-09-12T16:04:38.178Z,4.07
2022-09-12T16:07:27.172Z,2.47
2022-09-12T16:10:17.273Z,1.80
2022-09-12T16:13:05.733Z,2.27
2022-09-12T16:15:57.635Z,2.43
2022-09-12T16:18:47.709Z,2.30
2022-09-12T16:21:36.443Z,2.30
2022-09-12T16:24:25.067Z,2.00
2022-09-12T16:27:14.008Z,1.93
2022-09-12T16:30:02.776Z,2.63
2022-09-12T16:32:53.308Z,2.30
2022-09-12T16:35:43.262Z,2.57
2022-09-12T16:38:32.077Z,2.77
2022-09-12T16:41:22.337Z,2.13
2022-09-12T16:44:10.989Z,3.30
2022-09-12T16:46:59.618Z,3.00
2022-09-12T16:49:48.309Z,2.03
2022-09-12T16:52:42.989Z,2.63
2022-09-12T16:55:32.554Z,1.93
2022-09-12T16:58:21.238Z,2.20
2022-09-12T17:01:11.536Z,3.60
2022-09-12T17:04:00.136Z,1.90
2022-09-12T17:06:48.845Z,2.30
2022-09-12T17:09:38.703Z,1.87
2022-09-12T17:12:27.477Z,2.00
2022-09-12T17:15:16.229Z,2.93
2022-09-12T17:18:04.822Z,3.43
2022-09-12T17:20:53.381Z,3.57
2022-09-12T17:23:42.231Z,2.60
2022-09-12T17:26:32.159Z,2.50
2022-09-12T17:29:21.110Z,2.20
2022-09-12T17:32:11.081Z,3.07
2022-09-12T17:35:01.045Z,3.07
2022-09-12T17:37:49.623Z,2.50
2022-09-12T17:40:58.505Z,2.60
2022-09-12T17:43:50.768Z,2.97
2022-09-12T17:46:40.216Z,2.67
2022-09-12T17:49:28.953Z,2.20
2022-09-12T17:52:17.433Z,2.93
2022-09-12T17:55:06.653Z,2.73
2022-09-12T17:57:55.096Z,2.83
2022-09-12T18:01:10.691Z,2.60
2022-09-12T18:04:00.543Z,3.53
2022-09-12T18:06:49.605Z,2.87
2022-09-12T18:09:39.126Z,2.63
2022-09-12T18:12:27.794Z,2.83
2022-09-12T18:15:16.463Z,3.13
2022-09-12T18:18:06.657Z,3.10
2022-09-12T18:20:59.221Z,8.73
2022-09-12T18:23:48.071Z,4.97
2022-09-12T18:26:36.930Z,7.03
2022-09-12T18:29:27.833Z,8.33
2022-09-12T18:32:16.287Z,4.03
2022-09-12T18:35:07.050Z,5.63
2022-09-12T18:37:55.779Z,4.67
2022-09-12T18:40:44.352Z,3.37
2022-09-12T18:43:33.248Z,4.23
2022-09-12T18:46:21.982Z,4.23
2022-09-12T18:49:10.605Z,5.60
2022-09-12T18:52:00.479Z,4.33
2022-09-12T18:54:48.929Z,9.60
2022-09-12T18:57:37.413Z,10.23
2022-09-12T19:00:25.962Z,5.63
2022-09-12T19:03:14.482Z,8.10
2022-09-12T19:06:07.645Z,6.37
2022-09-12T19:08:58.686Z,7.03
2022-09-12T19:11:49.837Z,6.00
2022-09-12T19:14:38.654Z,6.83
2022-09-12T19:17:27.272Z,8.67
2022-09-12T19:20:15.804Z,7.03
2022-09-12T19:23:04.267Z,5.80
2022-09-12T19:26:01.902Z,4.43
2022-09-12T19:28:50.845Z,6.10
2022-09-12T19:31:39.344Z,7.63
2022-09-12T19:34:28.057Z,6.10
2022-09-12T19:37:16.579Z,8.27
2022-09-12T19:40:06.857Z,5.60
2022-09-12T19:42:56.861Z,6.00
2022-09-12T19:45:48.230Z,5.93
2022-09-12T19:48:36.871Z,5.33
2022-09-12T19:51:25.428Z,5.40
2022-09-12T19:54:14.065Z,4.77
2022-09-12T19:57:02.743Z,4.43
2022-09-12T19:59:52.589Z,4.60
2022-09-12T20:02:41.138Z,4.53
2022-09-12T20:05:29.839Z,4.60
2022-09-12T20:08:18.445Z,4.83
2022-09-12T20:11:07.061Z,4.70
2022-09-12T20:13:55.510Z,4.53
2022-09-12T20:16:45.547Z,4.60
2022-09-12T20:19:34.222Z,4.90
2022-09-12T20:22:22.720Z,5.10
2022-09-12T20:25:11.172Z,5.33
2022-09-12T20:28:00.363Z,4.90
2022-09-12T20:30:49.029Z,5.20
2022-09-12T20:33:39.408Z,5.10
2022-09-12T20:36:27.878Z,4.50
2022-09-12T20:39:18.186Z,4.53
2022-09-12T20:42:07.184Z,6.33
2022-09-12T20:44:55.986Z,5.03
2022-09-12T20:47:44.456Z,6.30
2022-09-12T20:50:34.246Z,5.83
2022-09-12T20:53:22.665Z,6.13
2022-09-12T20:56:11.158Z,5.17
2022-09-12T20:59:00.207Z,5.53
2022-09-12T21:01:49.285Z,5.63
2022-09-12T21:04:37.851Z,5.63
2022-09-12T21:07:27.644Z,4.80
2022-09-12T21:10:16.259Z,5.10
2022-09-12T21:13:04.715Z,5.43
2022-09-12T21:15:59.442Z,7.73
2022-09-12T21:18:48.611Z,5.80
2022-09-12T21:21:37.573Z,6.00
2022-09-12T21:24:27.345Z,5.70
2022-09-12T21:27:15.820Z,6.57
2022-09-12T21:30:05.510Z,5.73
2022-09-12T21:32:54.430Z,5.70
2022-09-12T21:35:42.887Z,5.67
2022-09-12T21:38:31.646Z,5.20
2022-09-12T21:41:21.429Z,5.50
2022-09-12T21:44:10.351Z,4.93
2022-09-12T21:46:58.802Z,4.93
2022-09-12T21:49:47.390Z,4.87
2022-09-12T21:52:36.782Z,6.00
2022-09-12T21:55:27.156Z,4.90
2022-09-12T21:58:17.122Z,5.40
2022-09-12T22:01:08.452Z,5.83
2022-09-12T22:03:57.025Z,5.83
2022-09-12T22:06:45.488Z,5.60
2022-09-12T22:09:34.338Z,8.47
2022-09-12T22:12:23.337Z,5.40
2022-09-12T22:15:38.981Z,5.63
2022-09-12T22:18:21.684Z,5.90
2022-09-12T22:21:13.259Z,4.70
2022-09-12T22:24:19.124Z,5.17
2022-09-12T22:27:08.670Z,5.53
2022-09-12T22:29:57.105Z,5.37
2022-09-12T22:32:48.219Z,6.20
2022-09-12T22:35:36.757Z,5.60
2022-09-12T22:38:26.033Z,5.30
2022-09-12T22:41:14.479Z,5.33
2022-09-12T22:44:03.117Z,6.50
2022-09-12T22:46:51.885Z,8.67
2022-09-12T22:49:42.023Z,4.17
2022-09-12T22:52:30.464Z,5.67
2022-09-12T22:55:19.079Z,5.43
2022-09-12T22:58:07.542Z,7.00
2022-09-12T23:00:56.098Z,6.13
2022-09-12T23:03:44.888Z,6.33
2022-09-12T23:06:34.835Z,5.77
2022-09-12T23:09:23.571Z,5.20
2022-09-12T23:12:12.050Z,7.47
2022-09-12T23:40:21.238Z,5.50
2022-09-12T23:43:09.668Z,6.07
2022-09-12T23:45:58.419Z,6.30
2022-09-12T23:48:47.113Z,6.03
2022-09-12T23:51:36.088Z,11.80
2022-09-12T23:54:24.999Z,6.47
2022-09-12T23:57:14.821Z,8.00
